WZZ11S EPKT-EDDN
Flight info
| Callsign | WZZ11S |
|---|---|
| Flight time | 0h 58m |
| Altitude | 34000 |
| Route | ADADO DCT UTEVO DCT ETUDA DCT ELMEK DCT BALTU DCT DONAD DCT OKG N869 NIBIL/N0440F330 Q244 PIVIR PIVIR1V |
| Aircraft | A320/M-SDE3FGHIRWY/LB1 |
Departure
| Time | 2026-05-04 19:17 |
|---|---|
| Airport | Katowice Wojciech Korfanty International Airport (EPKT) |
Arrival
| Time | 2026-05-04 20:15 |
|---|---|
| Airport | Nuremberg Airport (EDDN) |
| Time | Latitude | Longitude | Altitude | Speed | Heading |
|---|---|---|---|---|---|
| 2026-05-04 18:52 | 50.47173 | 19.07354 | 996 ft | 0 kts | 201° |
| 2026-05-04 19:07 | 50.47174 | 19.07354 | 991 ft | 2 kts | 201° |
| 2026-05-04 19:07 | 50.47190 | 19.07364 | 991 ft | 2 kts | 201° |
| 2026-05-04 19:08 | 50.47206 | 19.07371 | 992 ft | 2 kts | 151° |
| 2026-05-04 19:08 | 50.47221 | 19.07357 | 992 ft | 2 kts | 114° |
| 2026-05-04 19:08 | 50.47223 | 19.07349 | 993 ft | 0 kts | 94° |
| 2026-05-04 19:09 | 50.47223 | 19.07350 | 993 ft | 0 kts | 94° |
| 2026-05-04 19:09 | 50.47223 | 19.07355 | 993 ft | 1 kts | 94° |
| 2026-05-04 19:09 | 50.47223 | 19.07367 | 991 ft | 2 kts | 94° |
| 2026-05-04 19:10 | 50.47222 | 19.07378 | 993 ft | 0 kts | 94° |
| 2026-05-04 19:10 | 50.47222 | 19.07387 | 992 ft | 3 kts | 93° |
| 2026-05-04 19:11 | 50.47221 | 19.07439 | 991 ft | 7 kts | 90° |
| 2026-05-04 19:11 | 50.47222 | 19.07559 | 992 ft | 15 kts | 88° |
| 2026-05-04 19:11 | 50.47232 | 19.07756 | 996 ft | 21 kts | 88° |
| 2026-05-04 19:11 | 50.47235 | 19.08006 | 998 ft | 24 kts | 91° |
| 2026-05-04 19:12 | 50.47233 | 19.08272 | 1003 ft | 25 kts | 90° |
| 2026-05-04 19:12 | 50.47236 | 19.08844 | 1005 ft | 27 kts | 89° |
| 2026-05-04 19:12 | 50.47238 | 19.09149 | 1007 ft | 28 kts | 89° |
| 2026-05-04 19:13 | 50.47233 | 19.09466 | 1007 ft | 29 kts | 92° |
| 2026-05-04 19:13 | 50.47225 | 19.09793 | 1009 ft | 30 kts | 92° |
| 2026-05-04 19:13 | 50.47270 | 19.10085 | 1012 ft | 20 kts | 56° |
| 2026-05-04 19:13 | 50.47349 | 19.10255 | 1013 ft | 10 kts | 52° |
| 2026-05-04 19:14 | 50.47369 | 19.10294 | 1013 ft | 0 kts | 51° |
| 2026-05-04 19:14 | 50.47372 | 19.10299 | 1013 ft | 3 kts | 51° |
| 2026-05-04 19:14 | 50.47471 | 19.10437 | 1014 ft | 25 kts | 10° |
| 2026-05-04 19:15 | 50.47591 | 19.10326 | 1011 ft | 23 kts | 258° |
| 2026-05-04 19:15 | 50.47590 | 19.10199 | 1010 ft | 1 kts | 269° |
| 2026-05-04 19:15 | 50.47589 | 19.10177 | 1010 ft | 0 kts | 269° |
| 2026-05-04 19:16 | 50.47589 | 19.10104 | 1012 ft | 33 kts | 270° |
| 2026-05-04 19:16 | 50.47590 | 19.09354 | 1006 ft | 101 kts | 269° |
| 2026-05-04 19:16 | 50.47592 | 19.07969 | 998 ft | 150 kts | 270° |
| 2026-05-04 19:17 | 50.47619 | 19.06249 | 1472 ft | 158 kts | 270° |
| 2026-05-04 19:17 | 50.47654 | 19.04534 | 2189 ft | 156 kts | 265° |
| 2026-05-04 19:17 | 50.47649 | 19.02745 | 2626 ft | 174 kts | 264° |
| 2026-05-04 19:17 | 50.47634 | 19.00720 | 2918 ft | 197 kts | 264° |
| 2026-05-04 19:18 | 50.47621 | 18.98469 | 3271 ft | 216 kts | 265° |
| 2026-05-04 19:18 | 50.47613 | 18.95966 | 3665 ft | 241 kts | 266° |
| 2026-05-04 19:18 | 50.47609 | 18.93268 | 4448 ft | 251 kts | 266° |
| 2026-05-04 19:18 | 50.47590 | 18.90502 | 5366 ft | 255 kts | 266° |
| 2026-05-04 19:19 | 50.47557 | 18.87693 | 6303 ft | 260 kts | 267° |
| 2026-05-04 19:19 | 50.47519 | 18.84834 | 7168 ft | 264 kts | 267° |
| 2026-05-04 19:19 | 50.47232 | 18.81977 | 7988 ft | 268 kts | 250° |
| 2026-05-04 19:19 | 50.46594 | 18.79245 | 8842 ft | 272 kts | 249° |
| 2026-05-04 19:20 | 50.45922 | 18.76441 | 9708 ft | 276 kts | 249° |
| 2026-05-04 19:20 | 50.45227 | 18.73556 | 10325 ft | 289 kts | 248° |
| 2026-05-04 19:20 | 50.44491 | 18.70512 | 10568 ft | 312 kts | 248° |
| 2026-05-04 19:20 | 50.43701 | 18.67251 | 11058 ft | 324 kts | 248° |
| 2026-05-04 19:21 | 50.42898 | 18.63924 | 11779 ft | 328 kts | 248° |
| 2026-05-04 19:21 | 50.42092 | 18.60570 | 12552 ft | 330 kts | 248° |
| 2026-05-04 19:21 | 50.41275 | 18.57183 | 13321 ft | 333 kts | 248° |
| 2026-05-04 19:21 | 50.40453 | 18.53784 | 14045 ft | 335 kts | 248° |
| 2026-05-04 19:22 | 50.39622 | 18.50355 | 14676 ft | 338 kts | 248° |
| 2026-05-04 19:22 | 50.38780 | 18.46891 | 15295 ft | 342 kts | 248° |
| 2026-05-04 19:22 | 50.37928 | 18.43395 | 15902 ft | 346 kts | 248° |
| 2026-05-04 19:22 | 50.37062 | 18.39857 | 16497 ft | 349 kts | 249° |
| 2026-05-04 19:23 | 50.36189 | 18.36290 | 17111 ft | 353 kts | 249° |
| 2026-05-04 19:23 | 50.35304 | 18.32679 | 17713 ft | 357 kts | 249° |
| 2026-05-04 19:23 | 50.34410 | 18.29034 | 18319 ft | 360 kts | 248° |
| 2026-05-04 19:23 | 50.33509 | 18.25361 | 18870 ft | 363 kts | 249° |
| 2026-05-04 19:24 | 50.32598 | 18.21649 | 19411 ft | 367 kts | 249° |
| 2026-05-04 19:24 | 50.31674 | 18.17890 | 19956 ft | 371 kts | 249° |
| 2026-05-04 19:24 | 50.30745 | 18.14113 | 20492 ft | 374 kts | 249° |
| 2026-05-04 19:24 | 50.29805 | 18.10303 | 20995 ft | 377 kts | 249° |
| 2026-05-04 19:25 | 50.28852 | 18.06454 | 21495 ft | 381 kts | 249° |
| 2026-05-04 19:25 | 50.27889 | 18.02578 | 21984 ft | 384 kts | 249° |
| 2026-05-04 19:25 | 50.26915 | 17.98662 | 22469 ft | 388 kts | 249° |
| 2026-05-04 19:25 | 50.25933 | 17.94715 | 22956 ft | 391 kts | 249° |
| 2026-05-04 19:26 | 50.24940 | 17.90735 | 23430 ft | 395 kts | 249° |
| 2026-05-04 19:26 | 50.24182 | 17.86669 | 23824 ft | 397 kts | 262° |
| 2026-05-04 19:26 | 50.24053 | 17.82341 | 24238 ft | 400 kts | 269° |
| 2026-05-04 19:26 | 50.24013 | 17.77989 | 24667 ft | 402 kts | 269° |
| 2026-05-04 19:27 | 50.23974 | 17.73608 | 25090 ft | 404 kts | 269° |
| 2026-05-04 19:27 | 50.23931 | 17.69209 | 25552 ft | 405 kts | 269° |
| 2026-05-04 19:27 | 50.23886 | 17.64799 | 25991 ft | 407 kts | 269° |
| 2026-05-04 19:27 | 50.23838 | 17.60373 | 26401 ft | 409 kts | 269° |
| 2026-05-04 19:28 | 50.23787 | 17.55927 | 26802 ft | 411 kts | 269° |
| 2026-05-04 19:28 | 50.23735 | 17.51451 | 27184 ft | 413 kts | 269° |
| 2026-05-04 19:28 | 50.23684 | 17.46949 | 27562 ft | 416 kts | 269° |
| 2026-05-04 19:28 | 50.23631 | 17.42421 | 27957 ft | 418 kts | 269° |
| 2026-05-04 19:29 | 50.23573 | 17.37864 | 28355 ft | 421 kts | 269° |
| 2026-05-04 19:29 | 50.23509 | 17.33279 | 28756 ft | 423 kts | 269° |
| 2026-05-04 19:29 | 50.23444 | 17.28670 | 29140 ft | 426 kts | 269° |
| 2026-05-04 19:29 | 50.23379 | 17.24040 | 29530 ft | 428 kts | 269° |
| 2026-05-04 19:30 | 50.23314 | 17.19382 | 29934 ft | 430 kts | 269° |
| 2026-05-04 19:30 | 50.23248 | 17.14701 | 30285 ft | 432 kts | 269° |
| 2026-05-04 19:30 | 50.23203 | 17.11530 | 30510 ft | 433 kts | 269° |
| 2026-05-04 19:30 | 50.23131 | 17.06826 | 30874 ft | 434 kts | 269° |
| 2026-05-04 19:31 | 50.23054 | 17.02119 | 31367 ft | 432 kts | 269° |
| 2026-05-04 19:31 | 50.22976 | 16.97444 | 31881 ft | 429 kts | 269° |
| 2026-05-04 19:31 | 50.22901 | 16.92796 | 32390 ft | 427 kts | 269° |
| 2026-05-04 19:31 | 50.22825 | 16.88168 | 32900 ft | 425 kts | 269° |
| 2026-05-04 19:32 | 50.22745 | 16.83566 | 33417 ft | 423 kts | 269° |
| 2026-05-04 19:32 | 50.22667 | 16.78969 | 33866 ft | 422 kts | 269° |
| 2026-05-04 19:32 | 50.22587 | 16.74402 | 33968 ft | 420 kts | 268° |
| 2026-05-04 19:33 | 50.22413 | 16.65328 | 33979 ft | 416 kts | 268° |
| 2026-05-04 19:33 | 50.22233 | 16.56299 | 33970 ft | 416 kts | 268° |
| 2026-05-04 19:34 | 50.22048 | 16.47274 | 33971 ft | 416 kts | 268° |
| 2026-05-04 19:34 | 50.21855 | 16.38250 | 33971 ft | 416 kts | 268° |
| 2026-05-04 19:35 | 50.21659 | 16.29219 | 33967 ft | 416 kts | 268° |
| 2026-05-04 19:35 | 50.21462 | 16.20185 | 33971 ft | 416 kts | 268° |
| 2026-05-04 19:36 | 50.21251 | 16.11151 | 33959 ft | 416 kts | 268° |
| 2026-05-04 19:36 | 50.21033 | 16.02171 | 33945 ft | 417 kts | 267° |
| 2026-05-04 19:37 | 50.20806 | 15.93063 | 33942 ft | 417 kts | 267° |
| 2026-05-04 19:37 | 50.20582 | 15.84064 | 33941 ft | 418 kts | 267° |
| 2026-05-04 19:38 | 50.20339 | 15.74996 | 33945 ft | 418 kts | 267° |
| 2026-05-04 19:38 | 50.20088 | 15.65930 | 33946 ft | 417 kts | 267° |
| 2026-05-04 19:39 | 50.19832 | 15.56879 | 33943 ft | 417 kts | 267° |
| 2026-05-04 19:39 | 50.19575 | 15.47833 | 33943 ft | 417 kts | 266° |
| 2026-05-04 19:40 | 50.19308 | 15.38785 | 33940 ft | 417 kts | 266° |
| 2026-05-04 19:40 | 50.19031 | 15.29741 | 33947 ft | 417 kts | 266° |
| 2026-05-04 19:41 | 50.18745 | 15.20709 | 33961 ft | 416 kts | 266° |
| 2026-05-04 19:41 | 50.18455 | 15.11692 | 33961 ft | 416 kts | 266° |
| 2026-05-04 19:42 | 50.18160 | 15.02691 | 33957 ft | 415 kts | 266° |
| 2026-05-04 19:42 | 50.17862 | 14.93704 | 33959 ft | 415 kts | 266° |
| 2026-05-04 19:43 | 50.17554 | 14.84709 | 33959 ft | 415 kts | 266° |
| 2026-05-04 19:43 | 50.17248 | 14.75721 | 33973 ft | 414 kts | 266° |
| 2026-05-04 19:44 | 50.16927 | 14.66754 | 33970 ft | 414 kts | 265° |
| 2026-05-04 19:44 | 50.16600 | 14.57797 | 33967 ft | 413 kts | 265° |
| 2026-05-04 19:45 | 50.16263 | 14.48907 | 33966 ft | 413 kts | 265° |
| 2026-05-04 19:45 | 50.15913 | 14.39966 | 33965 ft | 413 kts | 265° |
| 2026-05-04 19:46 | 50.15567 | 14.31028 | 34004 ft | 413 kts | 265° |
| 2026-05-04 19:46 | 50.15213 | 14.22098 | 33999 ft | 412 kts | 265° |
| 2026-05-04 19:47 | 50.14852 | 14.13186 | 33995 ft | 412 kts | 265° |
| 2026-05-04 19:47 | 50.14483 | 14.04228 | 33969 ft | 411 kts | 265° |
| 2026-05-04 19:48 | 50.14111 | 13.95334 | 33965 ft | 411 kts | 265° |
| 2026-05-04 19:48 | 50.13924 | 13.90906 | 33594 ft | 409 kts | 265° |
| 2026-05-04 19:48 | 50.13736 | 13.86481 | 32824 ft | 410 kts | 265° |
| 2026-05-04 19:48 | 50.13543 | 13.82028 | 32037 ft | 413 kts | 265° |
| 2026-05-04 19:49 | 50.13348 | 13.77575 | 31461 ft | 411 kts | 265° |
| 2026-05-04 19:49 | 50.13152 | 13.73141 | 30913 ft | 408 kts | 265° |
| 2026-05-04 19:49 | 50.12954 | 13.68749 | 30368 ft | 405 kts | 265° |
| 2026-05-04 19:49 | 50.12758 | 13.64379 | 29796 ft | 403 kts | 265° |
| 2026-05-04 19:50 | 50.12564 | 13.60046 | 29186 ft | 400 kts | 265° |
| 2026-05-04 19:50 | 50.12369 | 13.55739 | 28590 ft | 397 kts | 265° |
| 2026-05-04 19:50 | 50.12174 | 13.51469 | 28009 ft | 394 kts | 265° |
| 2026-05-04 19:50 | 50.11977 | 13.47229 | 27456 ft | 391 kts | 265° |
| 2026-05-04 19:51 | 50.11780 | 13.43015 | 26906 ft | 389 kts | 265° |
| 2026-05-04 19:51 | 50.11581 | 13.38827 | 26365 ft | 386 kts | 265° |
| 2026-05-04 19:51 | 50.11383 | 13.34665 | 25848 ft | 384 kts | 265° |
| 2026-05-04 19:51 | 50.11184 | 13.30533 | 25327 ft | 382 kts | 265° |
| 2026-05-04 19:52 | 50.10985 | 13.26420 | 24873 ft | 379 kts | 265° |
| 2026-05-04 19:52 | 50.10781 | 13.22331 | 24414 ft | 377 kts | 263° |
| 2026-05-04 19:52 | 50.10285 | 13.18351 | 23966 ft | 374 kts | 257° |
| 2026-05-04 19:52 | 50.09713 | 13.14415 | 23518 ft | 372 kts | 257° |
| 2026-05-04 19:53 | 50.09140 | 13.10501 | 23011 ft | 369 kts | 256° |
| 2026-05-04 19:53 | 50.08568 | 13.06615 | 22509 ft | 367 kts | 256° |
| 2026-05-04 19:53 | 50.07999 | 13.02758 | 22013 ft | 364 kts | 256° |
| 2026-05-04 19:53 | 50.07434 | 12.98938 | 21525 ft | 361 kts | 256° |
| 2026-05-04 19:54 | 50.06872 | 12.95149 | 21041 ft | 358 kts | 256° |
| 2026-05-04 19:54 | 50.06313 | 12.91389 | 20552 ft | 355 kts | 256° |
| 2026-05-04 19:54 | 50.05759 | 12.87655 | 20068 ft | 353 kts | 256° |
| 2026-05-04 19:54 | 50.05205 | 12.83948 | 19599 ft | 350 kts | 256° |
| 2026-05-04 19:55 | 50.04659 | 12.80322 | 19121 ft | 348 kts | 256° |
| 2026-05-04 19:55 | 50.04108 | 12.76667 | 18660 ft | 345 kts | 256° |
| 2026-05-04 19:55 | 50.03565 | 12.73045 | 18198 ft | 343 kts | 256° |
| 2026-05-04 19:55 | 50.03028 | 12.69452 | 17947 ft | 341 kts | 256° |
| 2026-05-04 19:56 | 50.02486 | 12.65851 | 17963 ft | 342 kts | 256° |
| 2026-05-04 19:56 | 50.01942 | 12.62243 | 17969 ft | 343 kts | 256° |
| 2026-05-04 19:56 | 50.01393 | 12.58634 | 17968 ft | 343 kts | 255° |
| 2026-05-04 19:56 | 50.00841 | 12.55027 | 17956 ft | 343 kts | 255° |
| 2026-05-04 19:57 | 50.00289 | 12.51418 | 17959 ft | 343 kts | 255° |
| 2026-05-04 19:57 | 49.99740 | 12.47809 | 17958 ft | 343 kts | 255° |
| 2026-05-04 19:57 | 49.99191 | 12.44197 | 17956 ft | 343 kts | 255° |
| 2026-05-04 19:57 | 49.98642 | 12.40588 | 17955 ft | 343 kts | 255° |
| 2026-05-04 19:58 | 49.98091 | 12.36986 | 17958 ft | 343 kts | 256° |
| 2026-05-04 19:58 | 49.97534 | 12.33386 | 17957 ft | 343 kts | 256° |
| 2026-05-04 19:58 | 49.96977 | 12.29789 | 17956 ft | 343 kts | 256° |
| 2026-05-04 19:58 | 49.96421 | 12.26184 | 17950 ft | 343 kts | 256° |
| 2026-05-04 19:59 | 49.95863 | 12.22583 | 17959 ft | 343 kts | 256° |
| 2026-05-04 19:59 | 49.95304 | 12.18983 | 17956 ft | 343 kts | 256° |
| 2026-05-04 19:59 | 49.94744 | 12.15389 | 17955 ft | 343 kts | 255° |
| 2026-05-04 19:59 | 49.94183 | 12.11790 | 17954 ft | 343 kts | 255° |
| 2026-05-04 20:00 | 49.93622 | 12.08191 | 17955 ft | 343 kts | 255° |
| 2026-05-04 20:00 | 49.93061 | 12.04600 | 17956 ft | 343 kts | 255° |
| 2026-05-04 20:00 | 49.92498 | 12.01005 | 17956 ft | 343 kts | 255° |
| 2026-05-04 20:00 | 49.91934 | 11.97414 | 17981 ft | 343 kts | 255° |
| 2026-05-04 20:01 | 49.91367 | 11.93823 | 17974 ft | 343 kts | 255° |
| 2026-05-04 20:01 | 49.90795 | 11.90231 | 17923 ft | 341 kts | 255° |
| 2026-05-04 20:01 | 49.90231 | 11.86673 | 17431 ft | 338 kts | 255° |
| 2026-05-04 20:01 | 49.89672 | 11.83142 | 16911 ft | 336 kts | 255° |
| 2026-05-04 20:02 | 49.89114 | 11.79631 | 16416 ft | 334 kts | 255° |
| 2026-05-04 20:02 | 49.88558 | 11.76155 | 15936 ft | 331 kts | 255° |
| 2026-05-04 20:02 | 49.88007 | 11.72706 | 15467 ft | 328 kts | 254° |
| 2026-05-04 20:02 | 49.87454 | 11.69262 | 14858 ft | 330 kts | 254° |
| 2026-05-04 20:03 | 49.86889 | 11.65793 | 14256 ft | 332 kts | 252° |
| 2026-05-04 20:03 | 49.86120 | 11.62431 | 13653 ft | 332 kts | 245° |
| 2026-05-04 20:03 | 49.85056 | 11.59266 | 12988 ft | 331 kts | 237° |
| 2026-05-04 20:03 | 49.83721 | 11.56359 | 12328 ft | 331 kts | 230° |
| 2026-05-04 20:04 | 49.82142 | 11.53772 | 11685 ft | 331 kts | 222° |
| 2026-05-04 20:04 | 49.80349 | 11.51551 | 11064 ft | 330 kts | 214° |
| 2026-05-04 20:04 | 49.78371 | 11.49741 | 10450 ft | 331 kts | 207° |
| 2026-05-04 20:04 | 49.76286 | 11.48279 | 10060 ft | 324 kts | 205° |
| 2026-05-04 20:05 | 49.74276 | 11.46883 | 9946 ft | 309 kts | 206° |
| 2026-05-04 20:05 | 49.72479 | 11.45248 | 9961 ft | 291 kts | 216° |
| 2026-05-04 20:05 | 49.70991 | 11.43249 | 9960 ft | 277 kts | 226° |
| 2026-05-04 20:05 | 49.69786 | 11.40964 | 9958 ft | 274 kts | 233° |
| 2026-05-04 20:06 | 49.68441 | 11.38917 | 9955 ft | 273 kts | 211° |
| 2026-05-04 20:06 | 49.66640 | 11.37952 | 9534 ft | 282 kts | 187° |
| 2026-05-04 20:06 | 49.64668 | 11.38312 | 8879 ft | 294 kts | 162° |
| 2026-05-04 20:06 | 49.62915 | 11.40009 | 8237 ft | 305 kts | 136° |
| 2026-05-04 20:07 | 49.61717 | 11.42762 | 7610 ft | 314 kts | 119° |
| 2026-05-04 20:07 | 49.60699 | 11.45767 | 6997 ft | 319 kts | 118° |
| 2026-05-04 20:07 | 49.59683 | 11.48825 | 6393 ft | 322 kts | 118° |
| 2026-05-04 20:07 | 49.58662 | 11.51907 | 5762 ft | 324 kts | 117° |
| 2026-05-04 20:08 | 49.57628 | 11.55009 | 5184 ft | 325 kts | 117° |
| 2026-05-04 20:08 | 49.56610 | 11.58048 | 4979 ft | 312 kts | 117° |
| 2026-05-04 20:08 | 49.55854 | 11.59885 | 4949 ft | 301 kts | 130° |
| 2026-05-04 20:08 | 49.54253 | 11.61770 | 4965 ft | 284 kts | 156° |
| 2026-05-04 20:09 | 49.52406 | 11.62299 | 4960 ft | 260 kts | 184° |
| 2026-05-04 20:09 | 49.50782 | 11.61447 | 4964 ft | 242 kts | 215° |
| 2026-05-04 20:09 | 49.49717 | 11.59483 | 4962 ft | 242 kts | 246° |
| 2026-05-04 20:09 | 49.49170 | 11.57028 | 4961 ft | 244 kts | 253° |
| 2026-05-04 20:10 | 49.48714 | 11.54506 | 4719 ft | 244 kts | 255° |
| 2026-05-04 20:10 | 49.48266 | 11.51996 | 4289 ft | 243 kts | 255° |
| 2026-05-04 20:10 | 49.47809 | 11.49478 | 4008 ft | 242 kts | 255° |
| 2026-05-04 20:10 | 49.47349 | 11.46990 | 4004 ft | 242 kts | 255° |
| 2026-05-04 20:11 | 49.46887 | 11.44503 | 4008 ft | 241 kts | 255° |
| 2026-05-04 20:11 | 49.46492 | 11.41992 | 4004 ft | 242 kts | 267° |
| 2026-05-04 20:11 | 49.46648 | 11.39439 | 4014 ft | 241 kts | 281° |
| 2026-05-04 20:11 | 49.46946 | 11.36904 | 4009 ft | 241 kts | 281° |
| 2026-05-04 20:12 | 49.47218 | 11.34366 | 4007 ft | 241 kts | 279° |
| 2026-05-04 20:12 | 49.47476 | 11.31816 | 3848 ft | 240 kts | 280° |
| 2026-05-04 20:12 | 49.47731 | 11.29278 | 3554 ft | 239 kts | 280° |
| 2026-05-04 20:12 | 49.47984 | 11.26758 | 3257 ft | 238 kts | 280° |
| 2026-05-04 20:13 | 49.48233 | 11.24275 | 2947 ft | 237 kts | 280° |
| 2026-05-04 20:13 | 49.48483 | 11.21769 | 2634 ft | 237 kts | 281° |
| 2026-05-04 20:13 | 49.48732 | 11.19275 | 2324 ft | 235 kts | 281° |
| 2026-05-04 20:13 | 49.48977 | 11.16812 | 2034 ft | 228 kts | 281° |
| 2026-05-04 20:14 | 49.49206 | 11.14507 | 1740 ft | 207 kts | 281° |
| 2026-05-04 20:14 | 49.49412 | 11.12424 | 1469 ft | 190 kts | 279° |
| 2026-05-04 20:14 | 49.49608 | 11.10449 | 1214 ft | 182 kts | 279° |
| 2026-05-04 20:14 | 49.49779 | 11.08693 | 1032 ft | 147 kts | 279° |
| 2026-05-04 20:15 | 49.49913 | 11.07421 | 1030 ft | 95 kts | 278° |
| 2026-05-04 20:15 | 49.49987 | 11.06683 | 1020 ft | 45 kts | 279° |
| 2026-05-04 20:15 | 49.49956 | 11.06499 | 1017 ft | 6 kts | 198° |
| 2026-05-04 20:15 | 49.49925 | 11.06488 | 1017 ft | 13 kts | 185° |
| 2026-05-04 20:16 | 49.49887 | 11.06494 | 1018 ft | 1 kts | 173° |
| 2026-05-04 20:16 | 49.49871 | 11.06500 | 1018 ft | 4 kts | 163° |
| 2026-05-04 20:16 | 49.49841 | 11.06518 | 1018 ft | 2 kts | 155° |
| 2026-05-04 20:16 | 49.49819 | 11.06539 | 1017 ft | 5 kts | 144° |
| 2026-05-04 20:17 | 49.49794 | 11.06596 | 1017 ft | 8 kts | 102° |
| 2026-05-04 20:17 | 49.49785 | 11.06687 | 1017 ft | 8 kts | 97° |
| 2026-05-04 20:17 | 49.49777 | 11.06780 | 1018 ft | 9 kts | 97° |
| 2026-05-04 20:17 | 49.49769 | 11.06882 | 1020 ft | 10 kts | 97° |
| 2026-05-04 20:18 | 49.49759 | 11.06996 | 1021 ft | 11 kts | 97° |
| 2026-05-04 20:18 | 49.49746 | 11.07150 | 1020 ft | 24 kts | 97° |
| 2026-05-04 20:18 | 49.49718 | 11.07453 | 1029 ft | 15 kts | 100° |
| 2026-05-04 20:18 | 49.49699 | 11.07618 | 1032 ft | 16 kts | 100° |
| 2026-05-04 20:19 | 49.49660 | 11.07772 | 1031 ft | 7 kts | 136° |
| 2026-05-04 20:19 | 49.49652 | 11.07778 | 1031 ft | 3 kts | 152° |
| 2026-05-04 20:19 | 49.49622 | 11.07794 | 1031 ft | 6 kts | 174° |
| 2026-05-04 20:19 | 49.49606 | 11.07789 | 1030 ft | 3 kts | 194° |
| 2026-05-04 20:20 | 49.49603 | 11.07788 | 1030 ft | 1 kts | 194° |
| 2026-05-04 20:20 | 49.49600 | 11.07785 | 1030 ft | 2 kts | 204° |
| 2026-05-04 20:20 | 49.49574 | 11.07765 | 1029 ft | 6 kts | 208° |
| 2026-05-04 20:20 | 49.49558 | 11.07744 | 1027 ft | 5 kts | 221° |
| 2026-05-04 20:21 | 49.49540 | 11.07729 | 1028 ft | 5 kts | 190° |
| 2026-05-04 20:21 | 49.49518 | 11.07724 | 1027 ft | 0 kts | 190° |